Time;durP1;ratioP1;P1;durP2;ratioP2;P2;SDS_P1;SDS_P2;PMS_P1;PMS_P2;Temp;Humidity;BMP_temperature;BMP_pressure;BME280_temperature;BME280_humidity;BME280_pressure;Samples;Min_cycle;Max_cycle;Signal;HPM_P1;HPM_P2
2023/09/03 00:00:52;;;;;;;37.40;19.45;;;;;;;;;;4996669;28;20033;-67
2023/09/03 00:03:17;;;;;;;36.47;18.20;;;;;;;;;;4997397;28;20037;-67
2023/09/03 00:05:50;;;;;;;36.55;18.33;;;;;;;;;;4992405;28;20136;-67
2023/09/03 00:08:16;;;;;;;38.65;18.80;;;;;;;;;;4991068;28;20048;-67
2023/09/03 00:10:41;;;;;;;34.67;18.00;;;;;;;;;;4994140;28;20797;-67
2023/09/03 00:13:07;;;;;;;39.42;18.55;;;;;;;;;;5000249;28;20031;-67
2023/09/03 00:15:32;;;;;;;38.75;18.50;;;;;;;;;;4997418;28;20482;-67
2023/09/03 00:17:57;;;;;;;38.42;18.85;;;;;;;;;;4992094;28;20038;-67
2023/09/03 00:20:23;;;;;;;35.33;18.35;;;;;;;;;;4997888;28;20508;-67
2023/09/03 00:22:48;;;;;;;37.88;17.73;;;;;;;;;;4999973;28;20031;-67
2023/09/03 00:25:14;;;;;;;38.92;17.85;;;;;;;;;;4996844;28;20029;-67
2023/09/03 00:27:39;;;;;;;33.92;17.58;;;;;;;;;;4995031;28;20040;-67
2023/09/03 00:30:05;;;;;;;42.00;19.13;;;;;;;;;;4992924;28;20039;-67
2023/09/03 00:32:30;;;;;;;34.75;17.83;;;;;;;;;;4998235;28;20031;-67
2023/09/03 00:34:56;;;;;;;39.15;18.23;;;;;;;;;;4988053;28;20041;-67
2023/09/03 00:37:21;;;;;;;37.90;17.63;;;;;;;;;;4994731;28;20020;-67
2023/09/03 00:39:46;;;;;;;41.92;18.75;;;;;;;;;;5000081;28;20475;-67
2023/09/03 00:42:12;;;;;;;38.47;17.70;;;;;;;;;;5009405;28;20093;-67
2023/09/03 00:44:37;;;;;;;46.13;18.67;;;;;;;;;;5003187;28;20033;-67
2023/09/03 00:47:03;;;;;;;40.22;18.75;;;;;;;;;;4994251;28;20057;-67
2023/09/03 00:49:28;;;;;;;38.35;19.08;;;;;;;;;;4995885;28;20034;-67
2023/09/03 00:51:55;;;;;;;38.75;18.63;;;;;;;;;;5000678;28;20560;-67
2023/09/03 00:54:23;;;;;;;41.83;19.80;;;;;;;;;;4999274;28;20038;-67
2023/09/03 00:56:55;;;;;;;41.05;18.88;;;;;;;;;;4992995;28;20045;-67
2023/09/03 00:59:22;;;;;;;39.63;17.90;;;;;;;;;;4995559;28;20038;-67
2023/09/03 01:01:51;;;;;;;37.65;18.27;;;;;;;;;;4992636;28;20054;-67
2023/09/03 01:04:18;;;;;;;38.65;19.23;;;;;;;;;;4997168;28;20026;-67
2023/09/03 01:06:45;;;;;;;39.47;18.63;;;;;;;;;;5000469;28;20022;-67
2023/09/03 01:09:11;;;;;;;37.75;18.90;;;;;;;;;;4996925;28;20034;-67
2023/09/03 01:11:42;;;;;;;37.58;18.67;;;;;;;;;;4993606;28;20041;-67
2023/09/03 01:14:37;;;;;;;34.92;17.75;;;;;;;;;;4995616;28;20042;-67
2023/09/03 01:17:12;;;;;;;42.75;19.42;;;;;;;;;;4985055;28;20523;-67
2023/09/03 01:19:56;;;;;;;40.05;17.80;;;;;;;;;;4993734;28;20100;-67
2023/09/03 01:22:59;;;;;;;39.17;17.67;;;;;;;;;;4992140;28;20026;-67
2023/09/03 01:25:51;;;;;;;38.92;17.90;;;;;;;;;;4989731;28;20026;-67
2023/09/03 01:28:23;;;;;;;38.70;18.02;;;;;;;;;;4984439;28;20046;-67
2023/09/03 01:30:50;;;;;;;36.75;17.83;;;;;;;;;;4988391;28;20516;-67
2023/09/03 01:33:17;;;;;;;42.35;18.77;;;;;;;;;;4996783;28;20030;-67
2023/09/03 01:35:44;;;;;;;43.70;19.00;;;;;;;;;;4991365;28;20057;-67
2023/09/03 01:38:10;;;;;;;38.58;18.48;;;;;;;;;;4997255;28;20133;-67
2023/09/03 01:40:37;;;;;;;39.30;19.40;;;;;;;;;;4993247;28;20041;-67
2023/09/03 01:43:03;;;;;;;48.15;20.20;;;;;;;;;;4995212;28;20036;-67
2023/09/03 01:45:41;;;;;;;41.83;19.35;;;;;;;;;;4999489;28;20034;-67
2023/09/03 01:48:40;;;;;;;42.65;18.83;;;;;;;;;;5002107;28;20026;-67
2023/09/03 01:52:01;;;;;;;42.47;19.38;;;;;;;;;;4989345;28;20089;-67
2023/09/03 01:54:40;;;;;;;41.15;19.45;;;;;;;;;;4985287;28;20214;-67
2023/09/03 01:57:14;;;;;;;40.95;19.13;;;;;;;;;;4994235;28;20077;-67
2023/09/03 01:59:43;;;;;;;;;;;;;;;;;;4988062;28;20038;-67
2023/09/03 02:02:10;;;;;;;48.45;20.67;;;;;;;;;;4999844;28;19917;-67
2023/09/03 02:04:36;;;;;;;48.63;20.70;;;;;;;;;;5000624;28;20129;-67
2023/09/03 02:07:01;;;;;;;42.35;19.13;;;;;;;;;;5002143;28;20475;-67
2023/09/03 02:09:27;;;;;;;47.58;20.30;;;;;;;;;;4998879;28;20087;-67
2023/09/03 02:11:52;;;;;;;44.58;19.75;;;;;;;;;;4993819;28;20709;-67
2023/09/03 02:14:18;;;;;;;46.72;19.65;;;;;;;;;;4998745;28;20060;-67
2023/09/03 02:16:43;;;;;;;44.15;19.80;;;;;;;;;;4998934;28;20034;-67
2023/09/03 02:19:08;;;;;;;42.38;19.15;;;;;;;;;;5000804;28;20125;-67
2023/09/03 02:21:34;;;;;;;47.85;19.65;;;;;;;;;;4999037;28;20121;-67
2023/09/03 02:23:59;;;;;;;43.25;19.77;;;;;;;;;;4993146;28;20045;-67
2023/09/03 02:26:24;;;;;;;38.95;18.00;;;;;;;;;;4979135;28;20469;-67
2023/09/03 02:28:50;;;;;;;45.97;20.80;;;;;;;;;;4973251;28;20102;-67
2023/09/03 02:31:15;;;;;;;43.67;20.02;;;;;;;;;;4992159;28;20030;-67
2023/09/03 02:33:40;;;;;;;43.10;20.05;;;;;;;;;;4995943;28;20018;-67
2023/09/03 02:36:06;;;;;;;46.22;21.70;;;;;;;;;;4987662;28;20081;-67
2023/09/03 02:38:31;;;;;;;51.72;21.42;;;;;;;;;;4998427;28;20050;-67
2023/09/03 02:40:57;;;;;;;48.60;20.60;;;;;;;;;;4992613;28;20100;-67
2023/09/03 02:43:22;;;;;;;48.35;19.73;;;;;;;;;;4989889;28;20035;-67
2023/09/03 02:45:47;;;;;;;49.38;20.15;;;;;;;;;;4998600;28;20555;-66
2023/09/03 02:48:13;;;;;;;43.50;18.90;;;;;;;;;;4994942;28;20041;-67
2023/09/03 02:50:38;;;;;;;44.50;19.75;;;;;;;;;;4990758;28;20034;-67
2023/09/03 02:53:05;;;;;;;43.88;19.80;;;;;;;;;;4993365;28;20522;-67
2023/09/03 02:55:31;;;;;;;51.20;20.55;;;;;;;;;;4996659;28;20571;-67
2023/09/03 02:57:56;;;;;;;39.65;19.38;;;;;;;;;;4996442;28;20049;-67
2023/09/03 03:00:23;;;;;;;38.97;17.73;;;;;;;;;;4978265;28;20058;-67
2023/09/03 03:02:49;;;;;;;37.65;17.33;;;;;;;;;;4976492;28;20042;-67
2023/09/03 03:05:14;;;;;;;44.20;19.42;;;;;;;;;;4993481;28;20095;-67
2023/09/03 03:07:41;;;;;;;44.42;19.95;;;;;;;;;;5011337;28;20895;-67
2023/09/03 03:10:07;;;;;;;47.97;20.80;;;;;;;;;;5015056;28;20100;-67
2023/09/03 03:12:33;;;;;;;45.40;20.40;;;;;;;;;;5017931;28;20515;-67
2023/09/03 03:14:58;;;;;;;48.15;20.98;;;;;;;;;;4997588;28;20089;-67
2023/09/03 03:17:23;;;;;;;51.50;20.92;;;;;;;;;;4996701;28;20121;-67
2023/09/03 03:19:50;;;;;;;44.63;20.33;;;;;;;;;;5013964;28;20038;-67
2023/09/03 03:22:15;;;;;;;46.90;21.02;;;;;;;;;;5019901;28;20109;-67
2023/09/03 03:24:40;;;;;;;47.53;20.40;;;;;;;;;;5015923;28;20132;-67
2023/09/03 03:27:06;;;;;;;46.95;20.75;;;;;;;;;;5012183;28;20131;-67
2023/09/03 03:29:32;;;;;;;48.28;20.17;;;;;;;;;;5015689;28;20080;-67
2023/09/03 03:31:58;;;;;;;46.13;20.13;;;;;;;;;;5029255;28;20033;-67
2023/09/03 03:34:25;;;;;;;52.17;20.67;;;;;;;;;;5011687;28;20621;-67
2023/09/03 03:36:50;;;;;;;49.72;20.33;;;;;;;;;;5010990;28;20029;-67
2023/09/03 03:39:16;;;;;;;47.67;19.63;;;;;;;;;;5009965;28;20046;-67
2023/09/03 03:41:41;;;;;;;51.88;21.05;;;;;;;;;;4989508;28;20134;-67
2023/09/03 03:44:07;;;;;;;45.38;19.70;;;;;;;;;;5015094;28;20026;-67
2023/09/03 03:46:32;;;;;;;48.28;20.00;;;;;;;;;;5020810;28;20133;-67
2023/09/03 03:48:57;;;;;;;44.28;20.30;;;;;;;;;;5023498;28;20495;-67
2023/09/03 03:51:23;;;;;;;42.58;18.58;;;;;;;;;;5021318;28;20092;-67
2023/09/03 03:53:49;;;;;;;46.45;19.60;;;;;;;;;;5017669;28;20120;-67
2023/09/03 03:56:15;;;;;;;47.22;20.45;;;;;;;;;;5014917;28;20061;-67
2023/09/03 03:58:42;;;;;;;48.97;21.05;;;;;;;;;;5017730;28;20130;-67
2023/09/03 04:01:17;;;;;;;49.65;21.02;;;;;;;;;;5019350;28;20032;-67
2023/09/03 04:03:43;;;;;;;51.60;20.25;;;;;;;;;;5015216;28;20104;-67
2023/09/03 04:06:09;;;;;;;54.97;22.33;;;;;;;;;;5014803;28;20038;-67
2023/09/03 04:08:36;;;;;;;47.80;20.63;;;;;;;;;;5021289;28;20041;-67
2023/09/03 04:11:07;;;;;;;57.38;21.88;;;;;;;;;;5019260;28;20072;-67
2023/09/03 04:13:33;;;;;;;54.75;22.63;;;;;;;;;;5015552;28;20030;-67
2023/09/03 04:15:59;;;;;;;53.78;22.08;;;;;;;;;;5014723;28;20112;-67
2023/09/03 04:18:26;;;;;;;56.28;22.40;;;;;;;;;;5019317;28;20180;-67
2023/09/03 04:20:53;;;;;;;51.28;21.08;;;;;;;;;;5020511;28;20032;-67
2023/09/03 04:23:18;;;;;;;49.78;21.38;;;;;;;;;;5016689;28;20033;-67
2023/09/03 04:25:43;;;;;;;53.85;22.15;;;;;;;;;;5013922;28;20034;-67
2023/09/03 04:28:09;;;;;;;49.22;21.48;;;;;;;;;;5016504;28;20038;-67
2023/09/03 04:30:38;;;;;;;56.08;23.33;;;;;;;;;;5021324;28;20022;-67
2023/09/03 04:33:06;;;;;;;52.22;22.27;;;;;;;;;;5017315;28;20072;-67
2023/09/03 04:35:31;;;;;;;55.13;21.45;;;;;;;;;;5013395;28;20021;-67
2023/09/03 04:37:57;;;;;;;52.40;22.52;;;;;;;;;;5018666;28;20637;-67
2023/09/03 04:40:22;;;;;;;49.72;20.92;;;;;;;;;;5013390;28;20037;-67
2023/09/03 04:42:47;;;;;;;57.40;22.00;;;;;;;;;;5014923;28;20563;-67
2023/09/03 04:45:13;;;;;;;50.28;20.92;;;;;;;;;;5019866;28;20053;-67
2023/09/03 04:47:38;;;;;;;50.05;21.25;;;;;;;;;;5017788;28;20044;-67
2023/09/03 04:50:04;;;;;;;56.67;21.63;;;;;;;;;;5013675;28;20037;-67
2023/09/03 04:52:29;;;;;;;52.63;22.13;;;;;;;;;;5015893;28;20574;-67
2023/09/03 04:54:55;;;;;;;53.47;22.27;;;;;;;;;;5025248;28;20026;-67
2023/09/03 04:57:20;;;;;;;54.47;21.90;;;;;;;;;;5029802;28;20318;-67
2023/09/03 04:59:46;;;;;;;53.38;21.88;;;;;;;;;;5010736;28;20472;-67
2023/09/03 05:02:11;;;;;;;52.25;21.45;;;;;;;;;;5020643;28;20037;-67
2023/09/03 05:04:36;;;;;;;50.72;21.75;;;;;;;;;;5020415;28;20443;-67
2023/09/03 05:07:04;;;;;;;51.80;21.77;;;;;;;;;;5013862;28;20022;-67
2023/09/03 05:09:30;;;;;;;55.33;21.48;;;;;;;;;;5013839;28;20721;-67
2023/09/03 05:11:56;;;;;;;49.88;20.75;;;;;;;;;;5018671;28;20029;-67
2023/09/03 05:14:21;;;;;;;57.20;22.55;;;;;;;;;;5019511;28;20080;-67
2023/09/03 05:16:47;;;;;;;50.80;20.85;;;;;;;;;;5014864;28;20117;-67
2023/09/03 05:19:14;;;;;;;59.28;22.85;;;;;;;;;;5013472;28;20029;-67
2023/09/03 05:21:40;;;;;;;53.72;20.90;;;;;;;;;;5018150;28;20028;-67
2023/09/03 05:24:06;;;;;;;47.15;19.90;;;;;;;;;;5019167;28;20092;-67
2023/09/03 05:26:32;;;;;;;47.88;21.05;;;;;;;;;;5015444;28;20446;-67
2023/09/03 05:28:57;;;;;;;52.22;21.60;;;;;;;;;;5013061;28;20030;-67
2023/09/03 05:31:23;;;;;;;46.85;20.08;;;;;;;;;;5016892;28;20109;-67
2023/09/03 05:33:48;;;;;;;50.65;20.92;;;;;;;;;;5019330;28;20380;-67
2023/09/03 05:36:14;;;;;;;44.90;19.83;;;;;;;;;;5009612;28;20929;-67
2023/09/03 05:38:42;;;;;;;44.95;18.85;;;;;;;;;;5014597;28;20082;-67
2023/09/03 05:41:09;;;;;;;40.80;17.92;;;;;;;;;;5003481;28;20045;-67
2023/09/03 05:43:35;;;;;;;40.67;18.35;;;;;;;;;;5001194;28;20097;-67
2023/09/03 05:46:00;;;;;;;48.97;19.75;;;;;;;;;;5005839;28;20029;-67
2023/09/03 05:48:25;;;;;;;44.55;18.80;;;;;;;;;;5011979;28;20026;-67
2023/09/03 05:50:59;;;;;;;49.80;19.95;;;;;;;;;;5017381;28;20071;-67
2023/09/03 05:53:24;;;;;;;;;;;;;;;;;;5012716;28;20052;-67
2023/09/03 05:55:49;;;;;;;43.42;18.55;;;;;;;;;;5009937;28;20322;-67
2023/09/03 05:58:16;;;;;;;46.42;19.25;;;;;;;;;;5018821;28;20044;-67
2023/09/03 06:00:41;;;;;;;47.22;19.42;;;;;;;;;;5013746;28;20116;-67
2023/09/03 06:03:07;;;;;;;46.78;19.42;;;;;;;;;;5011773;28;20476;-67
2023/09/03 06:05:32;;;;;;;43.83;18.70;;;;;;;;;;5006518;28;20050;-67
2023/09/03 06:08:00;;;;;;;40.13;19.27;;;;;;;;;;4992937;28;20030;-67
2023/09/03 06:10:25;;;;;;;50.20;20.17;;;;;;;;;;5001036;28;20112;-67
2023/09/03 06:12:51;;;;;;;46.70;20.48;;;;;;;;;;5012916;28;20132;-67
2023/09/03 06:15:16;;;;;;;45.20;18.70;;;;;;;;;;5016902;28;20076;-68
2023/09/03 06:17:41;;;;;;;49.40;19.60;;;;;;;;;;5020457;28;20507;-67
2023/09/03 06:20:08;;;;;;;47.50;19.85;;;;;;;;;;5020770;28;20044;-67
2023/09/03 06:22:33;;;;;;;43.75;19.20;;;;;;;;;;5022632;28;20052;-67
2023/09/03 06:24:58;;;;;;;43.65;19.15;;;;;;;;;;5015838;28;20022;-68
2023/09/03 06:27:24;;;;;;;45.03;19.90;;;;;;;;;;5018460;28;20030;-67
2023/09/03 06:29:49;;;;;;;43.80;19.40;;;;;;;;;;5014973;28;20064;-67
2023/09/03 06:32:14;;;;;;;46.53;20.73;;;;;;;;;;5007763;28;20030;-67
2023/09/03 06:34:40;;;;;;;51.03;20.40;;;;;;;;;;4994747;28;20049;-67
2023/09/03 06:37:07;;;;;;;46.17;19.08;;;;;;;;;;5000068;28;20021;-67
2023/09/03 06:39:32;;;;;;;48.58;20.50;;;;;;;;;;4989649;28;20046;-67
2023/09/03 06:41:58;;;;;;;48.90;19.65;;;;;;;;;;4999902;28;20044;-68
2023/09/03 06:44:24;;;;;;;45.30;19.40;;;;;;;;;;5013698;28;20484;-66
2023/09/03 06:46:50;;;;;;;48.88;20.27;;;;;;;;;;5017854;28;20045;-67
2023/09/03 06:49:15;;;;;;;45.63;19.70;;;;;;;;;;5005873;28;20030;-67
2023/09/03 06:51:41;;;;;;;44.47;19.98;;;;;;;;;;5005600;28;20157;-67
2023/09/03 06:54:06;;;;;;;48.78;19.88;;;;;;;;;;4990122;28;20147;-67
2023/09/03 06:56:31;;;;;;;45.25;19.98;;;;;;;;;;4995907;28;20161;-67
2023/09/03 06:58:57;;;;;;;45.72;19.27;;;;;;;;;;4998231;28;20698;-67
2023/09/03 07:01:22;;;;;;;46.50;19.42;;;;;;;;;;5016689;28;20087;-67
2023/09/03 07:03:47;;;;;;;43.15;19.75;;;;;;;;;;5019630;28;20071;-67
2023/09/03 07:06:13;;;;;;;43.30;18.75;;;;;;;;;;5017692;28;20105;-67
2023/09/03 07:08:38;;;;;;;44.80;17.95;;;;;;;;;;5011407;28;20033;-67
2023/09/03 07:11:03;;;;;;;43.05;18.48;;;;;;;;;;5010804;28;20527;-67
2023/09/03 07:13:29;;;;;;;38.55;17.70;;;;;;;;;;5010011;28;20038;-67
2023/09/03 07:15:54;;;;;;;42.60;17.77;;;;;;;;;;5016337;28;20021;-67
2023/09/03 07:18:20;;;;;;;44.28;17.80;;;;;;;;;;5011987;28;20038;-67
2023/09/03 07:20:45;;;;;;;39.42;17.58;;;;;;;;;;5013165;28;20749;-67
2023/09/03 07:23:11;;;;;;;39.00;18.25;;;;;;;;;;5022241;28;20419;-67
2023/09/03 07:25:36;;;;;;;40.30;18.10;;;;;;;;;;5014895;28;20062;-67
2023/09/03 07:28:02;;;;;;;42.72;18.60;;;;;;;;;;5020355;28;20491;-67
2023/09/03 07:30:29;;;;;;;45.80;18.73;;;;;;;;;;5020735;28;20034;-67
2023/09/03 07:32:54;;;;;;;42.47;18.65;;;;;;;;;;5017211;28;20534;-67
2023/09/03 07:35:20;;;;;;;55.50;19.27;;;;;;;;;;5014890;28;20030;-67
2023/09/03 07:37:46;;;;;;;41.28;18.67;;;;;;;;;;5019479;28;20040;-67
2023/09/03 07:40:12;;;;;;;44.35;18.42;;;;;;;;;;5015653;28;20046;-67
2023/09/03 07:42:37;;;;;;;43.75;19.23;;;;;;;;;;5018142;28;20084;-67
2023/09/03 07:45:03;;;;;;;41.15;18.17;;;;;;;;;;5026688;28;20034;-67
2023/09/03 07:47:28;;;;;;;42.40;18.40;;;;;;;;;;5029825;28;20114;-67
2023/09/03 07:49:54;;;;;;;50.63;19.63;;;;;;;;;;5016596;28;20037;-67
2023/09/03 07:52:20;;;;;;;52.17;20.33;;;;;;;;;;5009299;28;20129;-67
2023/09/03 07:54:45;;;;;;;44.70;19.23;;;;;;;;;;5020695;28;20022;-67
2023/09/03 07:57:10;;;;;;;50.28;21.05;;;;;;;;;;5018721;28;20091;-67
2023/09/03 07:59:36;;;;;;;54.35;20.95;;;;;;;;;;5010345;28;20034;-67
2023/09/03 08:02:02;;;;;;;51.03;20.67;;;;;;;;;;5019433;28;20577;-67
2023/09/03 08:04:28;;;;;;;48.58;21.20;;;;;;;;;;5019850;28;20091;-67
2023/09/03 08:06:54;;;;;;;48.55;21.17;;;;;;;;;;5014918;28;20076;-67
2023/09/03 08:09:22;;;;;;;46.83;20.50;;;;;;;;;;5014918;28;20030;-67
2023/09/03 08:11:48;;;;;;;44.95;20.60;;;;;;;;;;5020991;28;20037;-67
2023/09/03 08:14:13;;;;;;;43.92;19.67;;;;;;;;;;5021022;28;20033;-67
2023/09/03 08:16:38;;;;;;;45.72;19.50;;;;;;;;;;5014487;28;20048;-67
2023/09/03 08:19:04;;;;;;;47.20;20.55;;;;;;;;;;5014645;28;20022;-67
2023/09/03 08:21:29;;;;;;;50.80;21.67;;;;;;;;;;5019825;28;20033;-67
2023/09/03 08:23:55;;;;;;;48.13;21.13;;;;;;;;;;5020721;28;20057;-67
2023/09/03 08:26:20;;;;;;;47.20;20.95;;;;;;;;;;5014547;28;20072;-67
2023/09/03 08:28:46;;;;;;;44.78;21.23;;;;;;;;;;5013927;28;20033;-67
2023/09/03 08:31:11;;;;;;;48.10;21.27;;;;;;;;;;5018362;28;20025;-67
2023/09/03 08:33:37;;;;;;;50.75;21.50;;;;;;;;;;5020228;28;20104;-67
2023/09/03 08:36:03;;;;;;;53.38;21.83;;;;;;;;;;5010123;28;20117;-67
2023/09/03 08:38:28;;;;;;;48.38;22.42;;;;;;;;;;5020224;28;20129;-67
2023/09/03 08:40:54;;;;;;;48.65;21.50;;;;;;;;;;5015879;28;20038;-67
2023/09/03 08:43:24;;;;;;;52.15;22.75;;;;;;;;;;5013678;28;20022;-67
2023/09/03 08:46:01;;;;;;;54.90;23.08;;;;;;;;;;5017148;28;20026;-67
2023/09/03 08:48:26;;;;;;;49.60;21.98;;;;;;;;;;5020416;28;20640;-67
2023/09/03 08:50:52;;;;;;;52.42;23.48;;;;;;;;;;5018821;28;20034;-67
2023/09/03 08:53:19;;;;;;;49.60;23.33;;;;;;;;;;5013583;28;20050;-67
2023/09/03 08:55:44;;;;;;;53.70;23.15;;;;;;;;;;5014594;28;20045;-67
2023/09/03 08:58:09;;;;;;;52.60;22.05;;;;;;;;;;5020145;28;20022;-67
2023/09/03 09:00:37;;;;;;;52.10;21.85;;;;;;;;;;5001373;28;20051;-67
2023/09/03 09:03:06;;;;;;;50.50;22.20;;;;;;;;;;5013938;28;20045;-67
2023/09/03 09:05:33;;;;;;;53.30;22.88;;;;;;;;;;5019209;28;20511;-67
2023/09/03 09:08:00;;;;;;;49.42;22.77;;;;;;;;;;5022317;28;20045;-67
2023/09/03 09:10:30;;;;;;;45.60;21.80;;;;;;;;;;5023586;28;20029;-67
2023/09/03 09:13:07;;;;;;;49.15;21.45;;;;;;;;;;5020386;28;20048;-68
2023/09/03 09:15:36;;;;;;;47.08;21.80;;;;;;;;;;5015872;28;20034;-67
2023/09/03 09:18:07;;;;;;;44.75;20.48;;;;;;;;;;5019474;28;20038;-67
2023/09/03 09:20:36;;;;;;;46.30;20.65;;;;;;;;;;5018960;28;20041;-67
2023/09/03 09:23:02;;;;;;;46.58;21.00;;;;;;;;;;5013089;28;20041;-67
2023/09/03 09:25:27;;;;;;;47.72;21.38;;;;;;;;;;5013210;28;20088;-68
2023/09/03 09:27:54;;;;;;;45.75;20.38;;;;;;;;;;5019710;28;20033;-68
2023/09/03 09:30:25;;;;;;;47.30;21.33;;;;;;;;;;5019454;28;20049;-67
2023/09/03 09:33:04;;;;;;;43.35;21.23;;;;;;;;;;5014266;28;20041;-67
2023/09/03 09:35:29;;;;;;;45.20;21.35;;;;;;;;;;5013192;28;20055;-67
2023/09/03 09:38:03;;;;;;;45.42;20.75;;;;;;;;;;4994907;28;20034;-67
2023/09/03 09:40:32;;;;;;;42.58;20.02;;;;;;;;;;5018044;28;20072;-67
2023/09/03 09:43:00;;;;;;;44.47;19.40;;;;;;;;;;5018629;28;20024;-67
2023/09/03 09:45:26;;;;;;;42.35;18.77;;;;;;;;;;5012647;28;20044;-67
2023/09/03 09:48:10;;;;;;;43.47;19.73;;;;;;;;;;5012343;28;20041;-68
2023/09/03 09:50:39;;;;;;;40.85;19.48;;;;;;;;;;5016264;28;20045;-67
2023/09/03 09:53:05;;;;;;;39.35;18.98;;;;;;;;;;5020340;28;20041;-67
2023/09/03 09:55:32;;;;;;;37.88;19.55;;;;;;;;;;5015014;28;20136;-67
2023/09/03 09:58:01;;;;;;;39.67;18.77;;;;;;;;;;5019340;28;20028;-68
2023/09/03 10:00:37;;;;;;;40.30;19.40;;;;;;;;;;5011232;28;20038;-67
2023/09/03 10:03:05;;;;;;;36.63;17.67;;;;;;;;;;5012223;28;20180;-68
2023/09/03 10:05:30;;;;;;;38.90;18.65;;;;;;;;;;5017839;28;20097;-67
2023/09/03 10:07:55;;;;;;;38.17;18.65;;;;;;;;;;5021864;28;20148;-67
2023/09/03 10:10:21;;;;;;;34.97;17.73;;;;;;;;;;5017667;28;20022;-68
2023/09/03 10:12:46;;;;;;;35.25;17.20;;;;;;;;;;5022245;28;20146;-67
2023/09/03 10:15:13;;;;;;;34.08;16.35;;;;;;;;;;5017111;28;20041;-67
2023/09/03 10:17:40;;;;;;;31.75;16.00;;;;;;;;;;5018827;28;20673;-67
2023/09/03 10:20:10;;;;;;;30.50;14.82;;;;;;;;;;5013780;28;20064;-67
2023/09/03 10:22:39;;;;;;;31.00;15.75;;;;;;;;;;5010384;28;20059;-67
2023/09/03 10:25:18;;;;;;;36.15;17.08;;;;;;;;;;5015429;28;20033;-67
2023/09/03 10:27:48;;;;;;;30.60;14.77;;;;;;;;;;5018537;28;20156;-67
2023/09/03 10:30:20;;;;;;;27.23;14.45;;;;;;;;;;5018983;28;20553;-67
2023/09/03 10:32:46;;;;;;;26.92;13.93;;;;;;;;;;5001855;28;20423;-67
2023/09/03 10:35:12;;;;;;;23.88;12.98;;;;;;;;;;5020386;28;20192;-67
2023/09/03 10:37:39;;;;;;;24.35;12.38;;;;;;;;;;5024988;28;20040;-68
2023/09/03 10:40:24;;;;;;;21.55;11.38;;;;;;;;;;5013183;28;20057;-68
2023/09/03 10:43:14;;;;;;;23.67;11.80;;;;;;;;;;5013687;28;20049;-68
2023/09/03 10:46:00;;;;;;;23.35;12.00;;;;;;;;;;5002760;28;20072;-67
2023/09/03 10:48:25;;;;;;;21.05;11.68;;;;;;;;;;5011574;28;20053;-68
2023/09/03 10:50:52;;;;;;;21.45;11.15;;;;;;;;;;5013480;28;20057;-67
2023/09/03 10:53:38;;;;;;;18.67;10.10;;;;;;;;;;5020094;28;20026;-67
2023/09/03 10:56:14;;;;;;;16.88;9.50;;;;;;;;;;5017623;28;20113;-67
2023/09/03 10:58:56;;;;;;;17.58;10.20;;;;;;;;;;5011044;28;20115;-68
2023/09/03 11:01:26;;;;;;;15.60;8.75;;;;;;;;;;5018266;28;20508;-67
2023/09/03 11:03:53;;;;;;;14.02;8.57;;;;;;;;;;5000352;28;20703;-67
2023/09/03 11:06:27;;;;;;;15.18;9.07;;;;;;;;;;5011310;28;20171;-68
2023/09/03 11:09:02;;;;;;;18.38;10.00;;;;;;;;;;5016271;28;20049;-67
2023/09/03 11:11:30;;;;;;;18.13;9.75;;;;;;;;;;5017555;28;20061;-67
2023/09/03 11:13:56;;;;;;;18.48;10.98;;;;;;;;;;5015624;28;20034;-67
2023/09/03 11:16:33;;;;;;;17.35;9.95;;;;;;;;;;5011124;28;20067;-67
2023/09/03 11:19:00;;;;;;;14.73;9.60;;;;;;;;;;5010752;28;20664;-68
2023/09/03 11:21:26;;;;;;;16.17;9.07;;;;;;;;;;5016241;28;20583;-67
2023/09/03 11:24:02;;;;;;;16.77;8.95;;;;;;;;;;5017735;28;20037;-68
2023/09/03 11:26:28;;;;;;;15.45;9.25;;;;;;;;;;5012886;28;20057;-68
2023/09/03 11:28:53;;;;;;;19.20;11.13;;;;;;;;;;5011471;28;20054;-68
2023/09/03 11:31:19;;;;;;;14.68;9.63;;;;;;;;;;5015617;28;20468;-67
2023/09/03 11:33:44;;;;;;;20.17;10.70;;;;;;;;;;5017474;28;20729;-68
2023/09/03 11:36:09;;;;;;;17.17;9.23;;;;;;;;;;5009157;28;20033;-68
2023/09/03 11:38:35;;;;;;;16.13;9.30;;;;;;;;;;5017763;28;20050;-68
2023/09/03 11:41:01;;;;;;;17.10;9.98;;;;;;;;;;5013431;28;20041;-68
2023/09/03 11:43:29;;;;;;;17.10;9.98;;;;;;;;;;5011438;28;20072;-67
2023/09/03 11:45:54;;;;;;;15.85;9.00;;;;;;;;;;5007818;28;20033;-67
2023/09/03 11:48:30;;;;;;;14.63;8.43;;;;;;;;;;5006226;28;20426;-67
2023/09/03 11:50:56;;;;;;;13.30;8.15;;;;;;;;;;5012242;28;20080;-67
2023/09/03 11:53:24;;;;;;;14.45;8.85;;;;;;;;;;5021756;28;20503;-68
2023/09/03 11:55:55;;;;;;;13.25;8.43;;;;;;;;;;5012044;28;20034;-67
2023/09/03 11:58:23;;;;;;;14.98;8.77;;;;;;;;;;5001842;28;20033;-68
2023/09/03 12:00:50;;;;;;;12.98;8.48;;;;;;;;;;5023005;28;20507;-68
2023/09/03 12:03:16;;;;;;;11.65;7.40;;;;;;;;;;5014875;28;20053;-68
2023/09/03 12:05:42;;;;;;;15.70;8.43;;;;;;;;;;5015744;28;20069;-68
2023/09/03 12:08:08;;;;;;;12.05;7.63;;;;;;;;;;5020776;28;20042;-68
2023/09/03 12:10:33;;;;;;;13.80;8.80;;;;;;;;;;5017064;28;20037;-68
2023/09/03 12:12:59;;;;;;;14.73;8.82;;;;;;;;;;5015283;28;20137;-68
2023/09/03 12:15:25;;;;;;;12.20;7.72;;;;;;;;;;5017700;28;20076;-68
2023/09/03 12:17:51;;;;;;;12.13;7.60;;;;;;;;;;5021153;28;20783;-68
2023/09/03 12:20:36;;;;;;;13.73;8.45;;;;;;;;;;5017649;28;20037;-68
2023/09/03 12:23:13;;;;;;;15.65;9.23;;;;;;;;;;5014078;28;20127;-68
2023/09/03 12:25:39;;;;;;;13.68;8.35;;;;;;;;;;5014146;28;20100;-68
2023/09/03 12:28:05;;;;;;;11.80;7.88;;;;;;;;;;5019115;28;20083;-68
2023/09/03 12:30:54;;;;;;;13.52;8.55;;;;;;;;;;5020700;28;20037;-68
2023/09/03 12:33:19;;;;;;;14.82;9.70;;;;;;;;;;5019661;28;20124;-68
2023/09/03 12:35:45;;;;;;;14.13;8.95;;;;;;;;;;5012535;28;20124;-68
2023/09/03 12:38:11;;;;;;;13.95;8.07;;;;;;;;;;5020253;28;20395;-67
2023/09/03 12:40:37;;;;;;;13.05;8.18;;;;;;;;;;5014160;28;20087;-68
2023/09/03 12:43:02;;;;;;;14.18;8.80;;;;;;;;;;5013972;28;20040;-68
2023/09/03 12:45:28;;;;;;;13.00;8.45;;;;;;;;;;5020090;28;20042;-68
2023/09/03 12:47:53;;;;;;;14.57;8.27;;;;;;;;;;4995722;28;20042;-68
2023/09/03 12:50:18;;;;;;;14.45;8.63;;;;;;;;;;5019804;28;20037;-68
2023/09/03 12:52:44;;;;;;;12.32;8.07;;;;;;;;;;5019113;28;20037;-68
2023/09/03 12:55:09;;;;;;;11.80;8.20;;;;;;;;;;5019599;28;20040;-67
2023/09/03 12:57:34;;;;;;;12.00;8.00;;;;;;;;;;5020471;28;20521;-68
2023/09/03 13:00:01;;;;;;;13.10;8.13;;;;;;;;;;5008859;28;20397;-68
2023/09/03 13:02:26;;;;;;;13.57;9.02;;;;;;;;;;5018407;28;20132;-68
2023/09/03 13:04:51;;;;;;;14.93;8.57;;;;;;;;;;5008062;28;20116;-68
2023/09/03 13:07:17;;;;;;;13.73;7.97;;;;;;;;;;5015776;28;20035;-68
2023/09/03 13:09:42;;;;;;;11.48;7.60;;;;;;;;;;5013993;28;20037;-68
2023/09/03 13:12:07;;;;;;;11.63;7.90;;;;;;;;;;5017387;28;20034;-68
2023/09/03 13:14:33;;;;;;;10.82;7.70;;;;;;;;;;5019866;28;20153;-68
2023/09/03 13:16:58;;;;;;;10.23;7.07;;;;;;;;;;5016154;28;20041;-68
2023/09/03 13:19:23;;;;;;;12.23;7.60;;;;;;;;;;5013226;28;20449;-68
2023/09/03 13:21:50;;;;;;;13.25;7.28;;;;;;;;;;5018137;28;20101;-68
2023/09/03 13:24:16;;;;;;;12.45;7.75;;;;;;;;;;5025237;28;20046;-68
2023/09/03 13:26:43;;;;;;;11.75;7.82;;;;;;;;;;5028611;28;20056;-68
2023/09/03 13:29:08;;;;;;;9.40;6.57;;;;;;;;;;5015676;28;20045;-68
2023/09/03 13:31:34;;;;;;;11.02;7.18;;;;;;;;;;5000396;28;20139;-68
2023/09/03 13:33:59;;;;;;;8.98;6.78;;;;;;;;;;5006765;28;20108;-68
2023/09/03 13:36:25;;;;;;;10.07;6.80;;;;;;;;;;5010625;28;20034;-68
2023/09/03 13:38:51;;;;;;;11.20;7.50;;;;;;;;;;5011398;28;20065;-68
2023/09/03 13:41:16;;;;;;;10.45;7.60;;;;;;;;;;5008711;28;20033;-68
2023/09/03 13:43:42;;;;;;;7.93;5.93;;;;;;;;;;5012794;28;20038;-68
2023/09/03 13:46:07;;;;;;;10.05;7.03;;;;;;;;;;5013896;28;20026;-68
2023/09/03 13:48:33;;;;;;;10.48;6.95;;;;;;;;;;5019216;28;20894;-68
2023/09/03 13:51:08;;;;;;;10.40;7.07;;;;;;;;;;5018454;28;20037;-68
2023/09/03 13:53:34;;;;;;;12.10;7.82;;;;;;;;;;5002981;28;20037;-68
2023/09/03 13:56:05;;;;;;;11.88;7.32;;;;;;;;;;5012362;28;20033;-68
2023/09/03 13:58:31;;;;;;;11.70;7.35;;;;;;;;;;5016849;28;20594;-68
2023/09/03 14:00:56;;;;;;;10.77;6.45;;;;;;;;;;5015871;28;20040;-68
2023/09/03 14:03:21;;;;;;;11.48;6.93;;;;;;;;;;5012445;28;20040;-68
2023/09/03 14:05:47;;;;;;;10.90;6.95;;;;;;;;;;5015765;28;20052;-68
2023/09/03 14:08:12;;;;;;;9.48;6.88;;;;;;;;;;5018725;28;20054;-68
2023/09/03 14:10:37;;;;;;;9.32;6.50;;;;;;;;;;5015623;28;20099;-68
2023/09/03 14:13:04;;;;;;;9.40;6.82;;;;;;;;;;5012823;28;20111;-68
2023/09/03 14:15:32;;;;;;;11.48;7.10;;;;;;;;;;5015188;28;20037;-68
2023/09/03 14:17:57;;;;;;;9.25;6.72;;;;;;;;;;5018410;28;20478;-68
2023/09/03 14:20:22;;;;;;;10.38;7.28;;;;;;;;;;5016715;28;20050;-68
2023/09/03 14:22:53;;;;;;;10.13;7.38;;;;;;;;;;4996167;28;20508;-68